»·PEaware :: N80183 KSMX-KBFL

N80183 :: KSMX-KBFL

FLIGHT INFORMATION

Flight Status: Arrived
Operator: Privately registered:
United States
More flights under this callsign
Pilot: Ralph G. (17389)
Aircraft: CESSNA 172 SKYHAWK
(C172)
More flights by this aircraft type
Origin: KSMX Santa Maria Pub/Capt Hancock
United States
Destination: KBFL Meadows
United States
More flights between these airports :: More routes between these airports
Route: +FELLOWS
File this flight plan on PilotEdge
Remarks:
Altitude:
(Current/Filed)
7,500ft
Speed:
(Current/Filed)
100kts
Departed: 12-Mar-19 06:04 PM
Arrived: 12-Mar-19 06:55 PM
Distance/Time
Traveled:
76nm/0:51
Distance/Time
To Go:
Arrived

Flight Plot

Page will automatically refresh every two minutes.

Flight plan parsing failed; only flown route is shown


Map Options




Map Legend


Flown Route
Filed Route
Departure Airport
Arrival Airport
Navaid (VOR, NDB)
Fix

Horizontal Profiles

Position Reports

Time Latitude Longitude Heading Altitude Ground
Speed
12-Mar-19 17:40 34.894387 -120.443014 11 262ft 0kts
12-Mar-19 17:41 34.894387 -120.443014 11 262ft 0kts
12-Mar-19 17:42 34.894387 -120.443014 11 262ft 0kts
12-Mar-19 17:43 34.894387 -120.443014 11 262ft 0kts
12-Mar-19 17:44 34.894387 -120.443014 11 262ft 0kts
12-Mar-19 17:45 34.894387 -120.443014 11 262ft 0kts
12-Mar-19 17:46 34.894387 -120.443014 11 262ft 0kts
12-Mar-19 17:47 34.894387 -120.443014 11 262ft 0kts
12-Mar-19 17:48 34.894387 -120.443014 11 262ft 0kts
12-Mar-19 17:49 34.894387 -120.443014 11 262ft 0kts
12-Mar-19 17:50 34.894387 -120.443014 11 262ft 0kts
12-Mar-19 17:51 34.894387 -120.443014 11 262ft 0kts
12-Mar-19 17:52 34.894387 -120.443014 11 262ft 0kts
12-Mar-19 17:53 34.894387 -120.443014 11 262ft 0kts
12-Mar-19 17:54 34.894387 -120.443014 11 262ft 0kts
12-Mar-19 17:55 34.894352 -120.443077 119 262ft 8kts
12-Mar-19 17:56 34.892873 -120.443619 171 262ft 6kts
12-Mar-19 17:57 34.894004 -120.442848 44 263ft 13kts
12-Mar-19 17:58 34.894427 -120.444040 259 259ft 13kts
12-Mar-19 17:59 34.894821 -120.445258 223 256ft 4kts
12-Mar-19 18:00 34.893511 -120.445253 180 257ft 0kts
12-Mar-19 18:01 34.893511 -120.445253 180 257ft 0kts
12-Mar-19 18:02 34.893441 -120.445256 178 257ft 0kts
12-Mar-19 18:03 34.896856 -120.451071 311 368ft 69kts
12-Mar-19 18:04 34.912345 -120.454524 60 1378ft 75kts
12-Mar-19 18:05 34.922212 -120.431856 66 2362ft 78kts
12-Mar-19 18:06 34.926547 -120.406423 82 3322ft 78kts
12-Mar-19 18:07 34.928413 -120.380022 85 4225ft 79kts
12-Mar-19 18:08 34.936385 -120.355081 72 5080ft 80kts
12-Mar-19 18:09 34.945976 -120.330635 69 5899ft 81kts
12-Mar-19 18:10 34.954320 -120.305150 69 6676ft 81kts
12-Mar-19 18:11 34.964043 -120.280074 58 7411ft 82kts
12-Mar-19 18:12 34.975716 -120.248950 73 7642ft 110kts
12-Mar-19 18:13 34.982654 -120.211850 68 7536ft 114kts
12-Mar-19 18:14 34.994043 -120.177020 55 7495ft 109kts
12-Mar-19 18:15 35.006740 -120.144022 67 7554ft 101kts
12-Mar-19 18:16 35.017469 -120.110639 70 7651ft 105kts
12-Mar-19 18:17 35.028192 -120.076307 69 7683ft 113kts
12-Mar-19 18:18 35.038025 -120.039578 71 7672ft 114kts
12-Mar-19 18:19 35.049575 -120.003283 66 7650ft 115kts
12-Mar-19 18:20 35.063224 -119.968417 71 7658ft 114kts
12-Mar-19 18:21 35.073184 -119.931410 67 7627ft 115kts
12-Mar-19 18:22 35.083037 -119.894822 74 7633ft 115kts
12-Mar-19 18:23 35.096706 -119.859623 57 7614ft 114kts
12-Mar-19 18:24 35.113455 -119.827301 57 7653ft 111kts
12-Mar-19 18:25 35.129692 -119.794869 58 7656ft 112kts
12-Mar-19 18:26 35.146362 -119.762039 58 7622ft 114kts
12-Mar-19 18:27 35.163882 -119.729951 56 7603ft 113kts
12-Mar-19 18:28 35.180191 -119.696849 59 7610ft 112kts
12-Mar-19 18:29 35.195857 -119.663878 62 7634ft 111kts
12-Mar-19 18:30 35.207635 -119.629450 62 7683ft 112kts
12-Mar-19 18:31 35.221370 -119.595787 68 7742ft 111kts
12-Mar-19 18:32 35.233349 -119.560528 59 7689ft 116kts
12-Mar-19 18:33 35.249968 -119.527470 63 7676ft 115kts
12-Mar-19 18:34 35.263516 -119.492741 69 7611ft 110kts
12-Mar-19 18:35 35.274302 -119.457391 78 7164ft 111kts
12-Mar-19 18:36 35.280219 -119.421257 62 6695ft 110kts
12-Mar-19 18:37 35.301014 -119.393968 44 6214ft 104kts
12-Mar-19 18:38 35.317962 -119.363302 52 5704ft 109kts
12-Mar-19 18:40 35.335219 -119.330558 59 4980ft 118kts
12-Mar-19 18:41 35.352692 -119.297066 54 4311ft 116kts
12-Mar-19 18:42 35.370112 -119.264021 56 3656ft 115kts
12-Mar-19 18:43 35.389248 -119.232595 53 3027ft 114kts
12-Mar-19 18:44 35.407729 -119.201507 59 2637ft 109kts
12-Mar-19 18:45 35.423659 -119.170771 57 2660ft 105kts
12-Mar-19 18:46 35.438609 -119.141302 65 2669ft 105kts
12-Mar-19 18:47 35.441597 -119.132241 71 2672ft 105kts
12-Mar-19 18:48 35.451691 -119.098363 64 2635ft 107kts
12-Mar-19 18:49 35.438215 -119.081508 161 2108ft 111kts
12-Mar-19 18:50 35.424066 -119.078800 172 1903ft 106kts
12-Mar-19 18:51 35.402478 -119.056139 123 1501ft 102kts
12-Mar-19 18:52 35.389209 -119.025790 100 1402ft 100kts
12-Mar-19 18:53 35.405902 -119.018445 301 1353ft 90kts
12-Mar-19 18:54 35.420488 -119.040104 315 845ft 76kts
12-Mar-19 18:55 35.433302 -119.055528 317 482ft 40kts
12-Mar-19 18:56 35.435236 -119.059427 229 482ft 1kts
12-Mar-19 18:56 35.434609 -119.060296 225 482ft 15kts
12-Mar-19 18:58 35.434116 -119.060942 224 481ft 0kts
12-Mar-19 18:59 35.432096 -119.058791 134 479ft 10kts
12-Mar-19 18:59 35.430517 -119.056632 81 477ft 7kts
12-Mar-19 19:01 35.431570 -119.055252 45 479ft 8kts
12-Mar-19 19:01 35.431845 -119.054904 46 479ft 11kts
12-Mar-19 19:02 35.431373 -119.050982 133 481ft 16kts
12-Mar-19 19:03 35.429281 -119.047843 44 484ft 7kts
12-Mar-19 19:05 35.429607 -119.047016 125 489ft 0kts
12-Mar-19 19:05 35.429607 -119.047016 125 489ft 0kts
12-Mar-19 19:06 35.429607 -119.047016 125 489ft 0kts

Navigation Log

Ident Type
Flight plan parsing failed, navigation log unavailable